createdAt,value
2018-04-15T00:00:32.569Z,42.80
2018-04-15T00:03:00.130Z,44.93
2018-04-15T00:05:27.690Z,41.10
2018-04-15T00:07:55.229Z,41.97
2018-04-15T00:10:22.766Z,42.83
2018-04-15T00:12:51.082Z,44.27
2018-04-15T00:15:18.626Z,43.60
2018-04-15T00:17:46.193Z,42.20
2018-04-15T00:20:13.747Z,42.70
2018-04-15T00:22:41.423Z,43.73
2018-04-15T00:25:08.980Z,44.10
2018-04-15T00:27:36.515Z,41.80
2018-04-15T00:30:04.093Z,40.87
2018-04-15T00:32:31.651Z,42.07
2018-04-15T00:34:59.169Z,43.40
2018-04-15T00:37:27.467Z,44.10
2018-04-15T00:39:55.042Z,45.67
2018-04-15T00:42:22.566Z,41.30
2018-04-15T00:44:51.300Z,42.77
2018-04-15T00:47:18.848Z,43.43
2018-04-15T00:49:46.397Z,41.80
2018-04-15T00:52:13.974Z,42.47
2018-04-15T00:54:41.524Z,43.50
2018-04-15T00:57:09.067Z,43.07
2018-04-15T00:59:36.639Z,43.87
2018-04-15T01:02:04.202Z,44.47
2018-04-15T01:04:31.732Z,44.03
2018-04-15T01:06:59.281Z,42.97
2018-04-15T01:09:27.599Z,44.17
2018-04-15T01:11:55.124Z,44.00
2018-04-15T01:14:22.636Z,43.73
2018-04-15T01:16:50.295Z,42.70
2018-04-15T01:19:17.824Z,42.13
2018-04-15T01:21:45.350Z,42.80
2018-04-15T01:24:13.732Z,44.47
2018-04-15T01:26:41.309Z,42.50
2018-04-15T01:29:08.812Z,43.83
2018-04-15T01:31:36.350Z,42.50
2018-04-15T01:34:03.862Z,44.07
2018-04-15T01:36:32.724Z,42.37
2018-04-15T01:39:00.263Z,42.83
2018-04-15T01:41:27.783Z,42.70
2018-04-15T01:43:56.131Z,48.50
2018-04-15T01:46:24.427Z,50.00
2018-04-15T01:48:51.951Z,47.60
2018-04-15T01:51:19.574Z,44.93
2018-04-15T01:53:47.120Z,44.30
2018-04-15T01:56:14.653Z,43.10
2018-04-15T01:58:42.936Z,44.50
2018-04-15T02:01:10.524Z,43.47
2018-04-15T02:03:38.076Z,45.87
2018-04-15T02:06:05.616Z,44.70
2018-04-15T02:08:33.209Z,47.43
2018-04-15T02:11:00.753Z,45.47
2018-04-15T02:13:28.269Z,46.80
2018-04-15T02:15:56.596Z,45.73
2018-04-15T02:18:24.146Z,45.40
2018-04-15T02:20:51.711Z,43.63
2018-04-15T02:23:19.268Z,44.13
2018-04-15T02:25:46.833Z,46.30
2018-04-15T02:28:14.353Z,43.30
2018-04-15T02:30:42.654Z,46.37
2018-04-15T02:33:10.209Z,45.87
2018-04-15T02:35:37.716Z,44.20
2018-04-15T02:38:06.764Z,45.90
2018-04-15T02:40:34.278Z,44.60
2018-04-15T02:43:02.562Z,46.23
2018-04-15T02:45:30.990Z,43.23
2018-04-15T02:47:58.544Z,43.63
2018-04-15T02:50:26.081Z,47.60
2018-04-15T02:52:53.651Z,47.83
2018-04-15T02:55:21.178Z,47.47
2018-04-15T02:57:49.466Z,49.67
2018-04-15T03:00:17.001Z,46.17
2018-04-15T03:02:45.283Z,46.70
2018-04-15T03:05:13.586Z,49.40
2018-04-15T03:07:41.148Z,50.07
2018-04-15T03:10:08.706Z,48.63
2018-04-15T03:12:36.236Z,49.03
2018-04-15T03:15:04.667Z,48.87
2018-04-15T03:17:32.219Z,48.03
2018-04-15T03:19:59.779Z,49.03
2018-04-15T03:22:27.421Z,49.43
2018-04-15T03:24:54.980Z,47.53
2018-04-15T03:27:22.538Z,46.80
2018-04-15T03:29:50.111Z,49.17
2018-04-15T03:32:17.882Z,50.77
2018-04-15T03:34:45.407Z,48.83
2018-04-15T03:37:13.373Z,49.87
2018-04-15T03:39:40.886Z,50.13
2018-04-15T03:42:08.405Z,47.40
2018-04-15T03:44:35.971Z,49.37
2018-04-15T03:47:03.523Z,49.93
2018-04-15T03:49:31.056Z,51.13
2018-04-15T03:51:59.374Z,49.47
2018-04-15T03:54:26.905Z,49.20
2018-04-15T03:56:54.421Z,51.27
2018-04-15T03:59:21.970Z,50.60
2018-04-15T04:01:49.497Z,50.57
2018-04-15T04:04:17.047Z,50.50
2018-04-15T04:06:44.607Z,48.90
2018-04-15T04:09:12.127Z,52.90
2018-04-15T04:11:40.418Z,49.93
2018-04-15T04:14:07.966Z,48.40
2018-04-15T04:16:36.260Z,48.80
2018-04-15T04:19:15.828Z,50.67
2018-04-15T04:22:09.162Z,52.13
2018-04-15T04:24:48.623Z,49.10
2018-04-15T04:27:16.157Z,50.40
2018-04-15T04:29:43.753Z,48.97
2018-04-15T04:32:11.314Z,51.83
2018-04-15T04:34:38.840Z,53.03
2018-04-15T04:37:06.408Z,52.93
2018-04-15T04:39:33.986Z,51.67
2018-04-15T04:42:01.501Z,52.33
2018-04-15T04:44:29.797Z,54.53
2018-04-15T04:46:57.340Z,52.10
2018-04-15T04:49:24.874Z,54.27
2018-04-15T04:51:52.476Z,52.00
2018-04-15T04:54:20.068Z,53.17
2018-04-15T04:56:47.706Z,53.87
2018-04-15T04:59:15.217Z,53.03
2018-04-15T05:01:43.526Z,53.63
2018-04-15T05:04:11.108Z,54.00
2018-04-15T05:06:38.621Z,54.13
2018-04-15T05:09:07.021Z,53.93
2018-04-15T05:11:34.548Z,57.17
2018-04-15T05:14:02.858Z,53.10
2018-04-15T05:16:30.415Z,55.30
2018-04-15T05:18:57.958Z,55.33
2018-04-15T05:21:25.921Z,62.50
2018-04-15T05:23:54.244Z,63.20
2018-04-15T05:26:21.761Z,62.00
2018-04-15T05:28:49.338Z,58.90
2018-04-15T05:31:16.894Z,57.47
2018-04-15T05:33:44.419Z,58.07
2018-04-15T05:36:11.964Z,59.37
2018-04-15T05:38:39.513Z,57.20
2018-04-15T05:41:07.042Z,58.60
2018-04-15T05:43:34.594Z,57.50
2018-04-15T05:46:02.254Z,60.07
2018-04-15T05:48:29.819Z,57.17
2018-04-15T05:50:57.366Z,59.87
2018-04-15T05:53:24.919Z,59.10
2018-04-15T05:55:52.486Z,56.43
2018-04-15T05:58:21.030Z,55.33
2018-04-15T06:00:49.346Z,55.87
2018-04-15T06:03:17.306Z,56.30
2018-04-15T06:05:44.823Z,56.87
2018-04-15T06:08:12.378Z,54.67
2018-04-15T06:10:39.911Z,54.73
2018-04-15T06:13:07.867Z,57.27
2018-04-15T06:15:35.427Z,57.77
2018-04-15T06:18:02.956Z,54.80
2018-04-15T06:20:30.482Z,57.23
2018-04-15T06:22:58.042Z,55.70
2018-04-15T06:25:26.321Z,54.97
2018-04-15T06:27:54.614Z,57.27
2018-04-15T06:30:22.291Z,59.90
2018-04-15T06:32:49.809Z,59.00
2018-04-15T06:35:18.862Z,58.90
2018-04-15T06:37:46.516Z,54.10
2018-04-15T06:40:14.068Z,57.90
2018-04-15T06:42:41.586Z,56.10
2018-04-15T06:45:09.905Z,57.57
2018-04-15T06:47:37.446Z,55.50
2018-04-15T06:50:04.973Z,55.83
2018-04-15T06:52:32.592Z,53.60
2018-04-15T06:55:00.157Z,55.63
2018-04-15T06:57:27.711Z,59.43
2018-04-15T06:59:55.357Z,57.73
2018-04-15T07:02:22.918Z,60.73
2018-04-15T07:04:50.438Z,55.87
2018-04-15T07:07:18.772Z,60.47
2018-04-15T07:09:46.294Z,57.57
2018-04-15T07:12:13.827Z,59.80
2018-04-15T07:14:42.171Z,59.20
2018-04-15T07:17:09.724Z,56.80
2018-04-15T07:19:37.274Z,57.50
2018-04-15T07:22:04.823Z,57.47
2018-04-15T07:24:32.339Z,57.47
2018-04-15T07:27:00.634Z,57.77
2018-04-15T07:29:28.257Z,60.90
2018-04-15T07:31:55.890Z,60.07
2018-04-15T07:34:23.435Z,59.97
2018-04-15T07:36:50.991Z,57.40
2018-04-15T07:39:18.517Z,56.30
2018-04-15T07:41:46.805Z,55.53
2018-04-15T07:44:14.357Z,58.03
2018-04-15T07:46:42.652Z,58.03
2018-04-15T07:49:10.186Z,55.93
2018-04-15T07:51:38.504Z,57.00
2018-04-15T07:54:06.029Z,58.27
2018-04-15T07:56:34.339Z,54.37
2018-04-15T07:59:01.906Z,54.93
2018-04-15T08:01:29.440Z,53.40
2018-04-15T08:03:57.003Z,53.90
2018-04-15T08:06:24.665Z,54.50
2018-04-15T08:08:52.192Z,53.67
2018-04-15T08:11:20.490Z,54.10
2018-04-15T08:13:48.064Z,54.77
2018-04-15T08:16:15.599Z,54.07
2018-04-15T08:18:43.172Z,55.70
2018-04-15T08:21:10.734Z,54.63
2018-04-15T08:23:38.281Z,55.60
2018-04-15T08:26:05.853Z,53.37
2018-04-15T08:28:33.413Z,52.40
2018-04-15T08:31:00.963Z,53.40
2018-04-15T08:33:28.697Z,52.80
2018-04-15T08:35:57.019Z,49.93
2018-04-15T08:38:24.545Z,51.07
2018-04-15T08:40:52.849Z,48.87
2018-04-15T08:43:20.538Z,44.33
2018-04-15T08:45:48.095Z,45.40
2018-04-15T08:48:15.627Z,42.73
2018-04-15T08:50:43.176Z,42.07
2018-04-15T08:53:10.727Z,44.70
2018-04-15T08:55:38.239Z,37.87
2018-04-15T08:58:05.751Z,37.83
2018-04-15T09:00:33.336Z,37.23
2018-04-15T09:03:00.896Z,35.33
2018-04-15T09:05:28.426Z,35.87
2018-04-15T09:07:56.016Z,32.80
2018-04-15T09:10:23.546Z,35.50
2018-04-15T09:12:51.072Z,34.97
2018-04-15T09:15:19.396Z,31.73
2018-04-15T09:17:46.952Z,32.47
2018-04-15T09:20:14.500Z,33.67
2018-04-15T09:22:42.112Z,32.63
2018-04-15T09:25:11.136Z,31.13
2018-04-15T09:27:38.714Z,30.27
2018-04-15T09:30:06.300Z,29.33
2018-04-15T09:32:33.823Z,28.07
2018-04-15T09:35:01.357Z,30.10
2018-04-15T09:37:28.934Z,28.90
2018-04-15T09:39:56.463Z,29.40
2018-04-15T09:42:24.778Z,27.10
2018-04-15T09:44:52.337Z,28.50
2018-04-15T09:47:20.104Z,28.30
2018-04-15T09:49:47.653Z,27.60
2018-04-15T09:52:15.636Z,27.10
2018-04-15T09:54:43.174Z,24.50
2018-04-15T09:57:10.731Z,24.80
2018-04-15T09:59:38.291Z,25.23
2018-04-15T10:02:05.869Z,20.80
2018-04-15T10:04:33.432Z,23.00
2018-04-15T10:07:01.843Z,23.73
2018-04-15T10:09:29.467Z,24.10
2018-04-15T10:11:56.999Z,19.30
2018-04-15T10:14:24.577Z,18.87
2018-04-15T10:16:52.174Z,18.57
2018-04-15T10:19:19.703Z,17.43
2018-04-15T10:21:47.258Z,17.33
2018-04-15T10:24:14.864Z,17.60
2018-04-15T10:26:42.339Z,17.37
2018-04-15T10:29:10.758Z,17.37
2018-04-15T10:31:38.311Z,19.27
2018-04-15T10:34:05.851Z,19.97
2018-04-15T10:36:33.419Z,18.80
2018-04-15T10:39:00.955Z,17.30
2018-04-15T10:41:29.255Z,19.70
2018-04-15T10:43:56.810Z,20.20
2018-04-15T10:46:24.332Z,20.97
2018-04-15T10:48:51.854Z,18.70
2018-04-15T10:51:19.499Z,19.23
2018-04-15T10:53:47.022Z,21.23
2018-04-15T10:56:15.332Z,22.17
2018-04-15T10:58:42.985Z,21.10
2018-04-15T11:01:10.544Z,20.60
2018-04-15T11:03:38.108Z,19.30
2018-04-15T11:06:05.662Z,17.60
2018-04-15T11:08:33.182Z,17.90
2018-04-15T11:11:01.607Z,17.83
2018-04-15T11:13:29.192Z,17.43
2018-04-15T11:15:56.711Z,17.60
2018-04-15T11:18:24.240Z,17.07
2018-04-15T11:20:52.573Z,18.80
2018-04-15T11:23:20.120Z,17.33
2018-04-15T11:25:47.654Z,17.73
2018-04-15T11:28:15.450Z,16.90
2018-04-15T11:30:42.969Z,17.13
2018-04-15T11:33:10.503Z,17.23
2018-04-15T11:35:38.050Z,19.13
2018-04-15T11:38:05.688Z,20.50
2018-04-15T11:40:33.325Z,19.00
2018-04-15T11:43:00.908Z,17.50
2018-04-15T11:45:28.442Z,17.23
2018-04-15T11:47:55.974Z,17.60
2018-04-15T11:50:24.386Z,15.90
2018-04-15T11:52:51.975Z,14.03
2018-04-15T11:55:20.318Z,14.20
2018-04-15T11:57:47.980Z,14.97
2018-04-15T12:00:15.704Z,16.53
2018-04-15T12:02:44.035Z,14.83
2018-04-15T12:05:11.596Z,14.87
2018-04-15T12:07:39.146Z,14.70
2018-04-15T12:10:06.699Z,14.93
2018-04-15T12:12:34.241Z,16.53
2018-04-15T12:15:01.844Z,14.60
2018-04-15T12:17:29.368Z,15.87
2018-04-15T12:19:56.940Z,15.17
2018-04-15T12:22:24.591Z,17.50
2018-04-15T12:24:52.151Z,14.37
2018-04-15T12:27:19.741Z,12.97
2018-04-15T12:29:47.393Z,11.37
2018-04-15T12:32:15.654Z,9.93
2018-04-15T12:34:43.268Z,10.70
2018-04-15T12:37:11.575Z,10.80
2018-04-15T12:39:39.902Z,8.93
2018-04-15T12:42:07.549Z,10.00
2018-04-15T12:44:35.177Z,11.30
2018-04-15T12:47:02.698Z,11.83
2018-04-15T12:49:31.025Z,11.90
2018-04-15T12:51:58.559Z,11.50
2018-04-15T12:54:26.078Z,11.70
2018-04-15T12:56:53.645Z,12.80
2018-04-15T12:59:21.948Z,12.50
2018-04-15T13:01:49.537Z,11.27
2018-04-15T13:04:17.566Z,11.70
2018-04-15T13:06:45.866Z,11.00
2018-04-15T13:09:13.396Z,9.53
2018-04-15T13:11:41.719Z,10.10
2018-04-15T13:14:09.265Z,8.63
2018-04-15T13:16:37.776Z,7.40
2018-04-15T13:19:05.413Z,6.60
2018-04-15T13:21:32.920Z,6.33
2018-04-15T13:24:01.224Z,6.67
2018-04-15T13:26:28.765Z,3.50
2018-04-15T13:28:57.057Z,3.77
2018-04-15T13:31:24.630Z,3.47
2018-04-15T13:33:52.187Z,4.07
2018-04-15T13:36:19.696Z,4.30
2018-04-15T13:38:47.333Z,4.60
2018-04-15T13:41:14.891Z,4.60
2018-04-15T13:43:42.441Z,4.67
2018-04-15T13:46:09.963Z,4.87
2018-04-15T13:48:37.654Z,3.73
2018-04-15T13:51:05.217Z,3.10
2018-04-15T13:53:32.740Z,3.23
2018-04-15T13:56:00.323Z,2.60
2018-04-15T13:58:27.843Z,3.10
2018-04-15T14:00:56.133Z,3.47
2018-04-15T14:03:23.695Z,4.13
2018-04-15T14:05:51.213Z,4.63
2018-04-15T14:08:18.845Z,4.30
2018-04-15T14:10:46.402Z,4.30
2018-04-15T14:13:14.101Z,3.80
2018-04-15T14:15:41.619Z,3.80
2018-04-15T14:18:09.290Z,3.90
2018-04-15T14:20:36.852Z,4.13
2018-04-15T14:23:04.379Z,3.47
2018-04-15T14:25:31.978Z,3.93
2018-04-15T14:27:59.475Z,3.80
2018-04-15T14:30:27.780Z,5.43
2018-04-15T14:32:55.313Z,5.97
2018-04-15T14:35:23.615Z,5.17
2018-04-15T14:37:51.196Z,4.53
2018-04-15T14:40:18.857Z,4.50
2018-04-15T14:42:46.386Z,4.77
2018-04-15T14:45:13.937Z,5.33
2018-04-15T14:47:41.612Z,6.23
2018-04-15T14:50:09.130Z,4.70
2018-04-15T14:52:37.447Z,5.00
2018-04-15T14:55:05.012Z,5.30
2018-04-15T14:57:32.563Z,4.90
2018-04-15T15:00:00.120Z,4.97
2018-04-15T15:02:27.692Z,4.90
2018-04-15T15:04:55.217Z,5.00
2018-04-15T15:07:22.737Z,5.40
2018-04-15T15:09:51.793Z,4.43
2018-04-15T15:12:19.351Z,5.20
2018-04-15T15:14:46.868Z,4.93
2018-04-15T15:17:15.302Z,4.90
2018-04-15T15:19:42.867Z,4.50
2018-04-15T15:22:10.366Z,4.60
2018-04-15T15:24:38.678Z,4.90
2018-04-15T15:27:06.211Z,5.13
2018-04-15T15:29:34.509Z,4.90
2018-04-15T15:32:02.052Z,4.70
2018-04-15T15:34:29.560Z,5.00
2018-04-15T15:36:57.075Z,4.90
2018-04-15T15:39:24.663Z,5.57
2018-04-15T15:41:52.189Z,5.40
2018-04-15T15:44:19.697Z,5.60
2018-04-15T15:46:47.240Z,5.30
2018-04-15T15:49:14.769Z,5.77
2018-04-15T15:51:42.359Z,5.43
2018-04-15T15:54:09.920Z,5.10
2018-04-15T15:56:37.434Z,4.93
2018-04-15T15:59:05.018Z,6.20
2018-04-15T16:01:32.689Z,5.50
2018-04-15T16:04:00.205Z,7.50
2018-04-15T16:06:28.487Z,6.43
2018-04-15T16:08:56.070Z,6.10
2018-04-15T16:11:23.633Z,5.10
2018-04-15T16:13:51.141Z,5.57
2018-04-15T16:16:19.459Z,5.37
2018-04-15T16:18:47.013Z,5.83
2018-04-15T16:21:14.551Z,5.73
2018-04-15T16:23:43.181Z,5.00
2018-04-15T16:26:10.688Z,6.47
2018-04-15T16:28:38.998Z,6.03
2018-04-15T16:31:06.537Z,6.50
2018-04-15T16:33:34.129Z,6.03
2018-04-15T16:36:01.853Z,5.90
2018-04-15T16:38:30.185Z,6.67
2018-04-15T16:40:57.821Z,5.93
2018-04-15T16:43:25.334Z,6.00
2018-04-15T16:45:53.660Z,5.60
2018-04-15T16:48:21.188Z,5.43
2018-04-15T16:50:48.732Z,5.00
2018-04-15T16:53:16.339Z,5.03
2018-04-15T16:55:43.878Z,5.27
2018-04-15T16:58:11.400Z,5.73
2018-04-15T17:00:39.717Z,6.37
2018-04-15T17:03:07.280Z,5.70
2018-04-15T17:05:34.830Z,4.70
2018-04-15T17:08:02.373Z,5.40
2018-04-15T17:10:29.887Z,5.27
2018-04-15T17:12:57.523Z,5.50
2018-04-15T17:15:25.081Z,5.50
2018-04-15T17:17:52.637Z,5.13
2018-04-15T17:20:20.154Z,6.20
2018-04-15T17:22:48.476Z,7.37
2018-04-15T17:25:16.036Z,7.53
2018-04-15T17:27:43.564Z,8.30
2018-04-15T17:30:11.115Z,8.13
2018-04-15T17:32:39.021Z,8.00
2018-04-15T17:35:06.557Z,8.83
2018-04-15T17:37:34.106Z,10.30
2018-04-15T17:40:01.626Z,10.13
2018-04-15T17:42:29.164Z,9.87
2018-04-15T17:44:56.723Z,9.73
2018-04-15T17:47:24.355Z,9.30
2018-04-15T17:49:51.912Z,9.80
2018-04-15T17:52:19.496Z,9.57
2018-04-15T17:54:47.005Z,9.33
2018-04-15T17:57:15.297Z,9.90
2018-04-15T17:59:42.947Z,9.03
2018-04-15T18:02:10.487Z,10.60
2018-04-15T18:04:38.791Z,11.13
2018-04-15T18:07:06.377Z,10.90
2018-04-15T18:09:33.949Z,11.67
2018-04-15T18:12:01.492Z,12.63
2018-04-15T18:14:29.062Z,13.50
2018-04-15T18:16:56.809Z,13.00
2018-04-15T18:19:24.327Z,12.60
2018-04-15T18:21:52.699Z,18.60
2018-04-15T18:24:20.193Z,18.67
2018-04-15T18:26:47.983Z,13.83
2018-04-15T18:29:15.739Z,13.57
2018-04-15T18:31:43.261Z,12.30
2018-04-15T18:34:10.851Z,15.10
2018-04-15T18:36:38.494Z,14.93
2018-04-15T18:39:06.128Z,14.47
2018-04-15T18:41:34.462Z,15.40
2018-04-15T18:44:02.120Z,15.20
2018-04-15T18:46:29.670Z,16.90
2018-04-15T18:48:57.218Z,19.40
2018-04-15T18:51:24.801Z,22.70
2018-04-15T18:53:52.352Z,23.30
2018-04-15T18:56:19.888Z,27.20
2018-04-15T18:58:47.454Z,23.40
2018-04-15T19:01:15.002Z,20.47
2018-04-15T19:03:42.526Z,19.67
2018-04-15T19:06:10.857Z,19.50
2018-04-15T19:08:38.389Z,21.70
2018-04-15T19:11:06.007Z,21.60
2018-04-15T19:13:33.590Z,22.70
2018-04-15T19:16:01.877Z,23.30
2018-04-15T19:18:29.404Z,21.50
2018-04-15T19:20:56.959Z,22.73
2018-04-15T19:23:24.601Z,22.53
2018-04-15T19:25:52.142Z,22.07
2018-04-15T19:28:19.713Z,23.20
2018-04-15T19:30:47.229Z,23.17
2018-04-15T19:33:14.741Z,24.93
2018-04-15T19:35:42.321Z,23.80
2018-04-15T19:38:10.622Z,23.70
2018-04-15T19:40:38.141Z,23.57
2018-04-15T19:43:06.480Z,23.90
2018-04-15T19:45:34.040Z,24.97
2018-04-15T19:48:01.612Z,25.90
2018-04-15T19:50:29.193Z,25.20
2018-04-15T19:52:56.819Z,24.90
2018-04-15T19:55:24.389Z,24.60
2018-04-15T19:57:51.956Z,24.07
2018-04-15T20:00:19.487Z,23.00
2018-04-15T20:02:47.070Z,23.80
2018-04-15T20:05:14.653Z,24.90
2018-04-15T20:07:42.287Z,23.37
2018-04-15T20:10:09.831Z,23.20
2018-04-15T20:12:37.385Z,24.67
2018-04-15T20:15:04.921Z,24.30
2018-04-15T20:17:32.504Z,25.43
2018-04-15T20:20:00.062Z,25.27
2018-04-15T20:22:27.595Z,24.73
2018-04-15T20:24:55.121Z,24.07
2018-04-15T20:27:22.695Z,23.67
2018-04-15T20:29:50.981Z,25.60
2018-04-15T20:32:19.264Z,26.63
2018-04-15T20:34:46.824Z,25.17
2018-04-15T20:37:15.117Z,26.27
2018-04-15T20:39:42.680Z,26.80
2018-04-15T20:42:10.241Z,26.17
2018-04-15T20:44:37.845Z,28.77
2018-04-15T20:47:05.365Z,26.57
2018-04-15T20:49:33.031Z,26.83
2018-04-15T20:52:00.579Z,26.57
2018-04-15T20:54:28.145Z,28.93
2018-04-15T20:56:55.699Z,32.70
2018-04-15T20:59:23.240Z,31.20
2018-04-15T21:01:50.760Z,31.57
2018-04-15T21:04:18.330Z,30.43
2018-04-15T21:06:46.625Z,30.60
2018-04-15T21:09:14.150Z,31.30
2018-04-15T21:11:42.484Z,31.60
2018-04-15T21:14:10.037Z,31.80
2018-04-15T21:16:37.560Z,29.07
2018-04-15T21:19:05.889Z,29.60
2018-04-15T21:21:33.413Z,28.40
2018-04-15T21:24:00.997Z,28.03
2018-04-15T21:26:28.570Z,26.77
2018-04-15T21:28:56.093Z,27.93
2018-04-15T21:31:23.614Z,28.67
2018-04-15T21:33:51.182Z,28.10
2018-04-15T21:36:19.476Z,29.50
2018-04-15T21:38:47.767Z,26.73
2018-04-15T21:41:15.353Z,26.03
2018-04-15T21:43:42.903Z,25.40
2018-04-15T21:46:10.420Z,27.70
2018-04-15T21:48:38.739Z,28.20
2018-04-15T21:51:06.256Z,28.97
2018-04-15T21:53:34.573Z,28.10
2018-04-15T21:56:02.211Z,30.57
2018-04-15T21:58:29.747Z,32.60
2018-04-15T22:00:58.034Z,33.33
2018-04-15T22:03:26.366Z,33.13
2018-04-15T22:05:53.892Z,32.50
2018-04-15T22:08:21.422Z,33.37
2018-04-15T22:10:49.755Z,30.63
2018-04-15T22:13:17.286Z,32.97
2018-04-15T22:15:44.817Z,30.87
2018-04-15T22:18:13.162Z,32.00
2018-04-15T22:20:40.696Z,31.87
2018-04-15T22:23:08.238Z,31.90
2018-04-15T22:25:35.789Z,30.20
2018-04-15T22:28:03.314Z,29.37
2018-04-15T22:30:31.625Z,30.67
2018-04-15T22:32:59.179Z,30.43
2018-04-15T22:35:26.731Z,31.40
2018-04-15T22:37:54.245Z,29.10
2018-04-15T22:40:21.809Z,29.03
2018-04-15T22:42:49.358Z,29.33
2018-04-15T22:45:16.874Z,28.50
2018-04-15T22:47:50.110Z,30.00
2018-04-15T22:50:17.639Z,29.53
2018-04-15T22:52:45.161Z,29.10
2018-04-15T22:55:13.482Z,29.67
2018-04-15T22:57:41.004Z,29.17
2018-04-15T23:00:08.526Z,29.00
2018-04-15T23:02:36.092Z,29.47
2018-04-15T23:05:04.397Z,27.90
2018-04-15T23:07:31.932Z,29.67
2018-04-15T23:10:00.360Z,28.50
2018-04-15T23:12:27.896Z,28.47
2018-04-15T23:14:55.413Z,28.13
2018-04-15T23:17:23.735Z,28.27
2018-04-15T23:19:51.315Z,27.10
2018-04-15T23:22:18.842Z,28.20
2018-04-15T23:24:46.392Z,26.50
2018-04-15T23:27:14.700Z,25.97
2018-04-15T23:29:42.229Z,27.23
2018-04-15T23:32:10.550Z,28.53
2018-04-15T23:34:38.106Z,27.30
2018-04-15T23:37:05.626Z,28.83
2018-04-15T23:39:33.721Z,28.70
2018-04-15T23:42:01.267Z,29.17
2018-04-15T23:44:28.834Z,29.70
2018-04-15T23:46:56.383Z,29.83
2018-04-15T23:49:23.939Z,31.20
2018-04-15T23:51:51.464Z,30.73
2018-04-15T23:54:19.032Z,30.73
2018-04-15T23:56:52.997Z,30.13
2018-04-15T23:59:20.561Z,29.73
